createdAt,value
2022-09-30T00:02:49.815Z,13.47
2022-09-30T00:07:51.203Z,13.63
2022-09-30T00:12:52.650Z,13.17
2022-09-30T00:17:53.862Z,13.40
2022-09-30T00:22:55.095Z,14.20
2022-09-30T00:27:56.195Z,12.70
2022-09-30T00:32:57.455Z,13.53
2022-09-30T00:37:59.425Z,12.37
2022-09-30T00:43:00.706Z,12.63
2022-09-30T00:48:07.461Z,12.83
2022-09-30T00:53:33.691Z,12.93
2022-09-30T00:58:39.989Z,12.63
2022-09-30T01:04:03.876Z,12.60
2022-09-30T01:09:05.298Z,13.23
2022-09-30T01:14:12.670Z,12.63
2022-09-30T01:19:28.694Z,12.67
2022-09-30T01:25:06.733Z,13.43
2022-09-30T01:30:40.247Z,14.53
2022-09-30T01:35:50.459Z,14.57
2022-09-30T01:41:00.876Z,13.50
2022-09-30T01:46:04.810Z,13.30
2022-09-30T01:51:11.919Z,15.20
2022-09-30T01:56:24.376Z,14.30
2022-09-30T02:01:33.696Z,14.37
2022-09-30T02:06:40.863Z,15.43
2022-09-30T02:11:42.462Z,16.83
2022-09-30T02:16:52.052Z,17.23
2022-09-30T02:22:28.569Z,16.23
2022-09-30T02:27:41.575Z,17.53
2022-09-30T02:32:51.886Z,16.80
2022-09-30T02:37:58.458Z,17.07
2022-09-30T02:42:59.674Z,16.67
2022-09-30T02:48:19.793Z,16.47
2022-09-30T02:53:31.402Z,17.33
2022-09-30T02:58:35.810Z,17.60
2022-09-30T03:03:50.720Z,17.33
2022-09-30T03:08:52.744Z,19.00
2022-09-30T03:14:06.013Z,19.93
2022-09-30T03:19:16.853Z,19.73
2022-09-30T03:24:27.047Z,18.23
2022-09-30T03:29:31.359Z,19.20
2022-09-30T03:34:49.166Z,20.10
2022-09-30T03:39:58.447Z,20.33
2022-09-30T03:45:07.546Z,20.23
2022-09-30T03:50:13.910Z,19.17
2022-09-30T03:55:16.531Z,20.03
2022-09-30T04:00:18.363Z,19.93
2022-09-30T04:05:19.941Z,20.03
2022-09-30T04:10:21.049Z,19.23
2022-09-30T04:15:22.410Z,59.00
2022-09-30T04:20:23.626Z,25.10
2022-09-30T04:25:26.334Z,20.20
2022-09-30T04:30:32.697Z,19.47
2022-09-30T04:35:36.595Z,19.20
2022-09-30T04:40:38.365Z,20.20
2022-09-30T04:45:43.556Z,21.57
2022-09-30T04:50:44.830Z,20.27
2022-09-30T04:55:46.231Z,21.70
2022-09-30T05:00:47.452Z,24.23
2022-09-30T05:05:48.826Z,24.20
2022-09-30T05:10:58.126Z,24.27
2022-09-30T05:15:59.792Z,26.27
2022-09-30T05:21:02.556Z,27.03
2022-09-30T05:26:06.606Z,27.03
2022-09-30T05:31:12.697Z,27.43
2022-09-30T05:36:15.941Z,28.97
2022-09-30T05:41:18.843Z,27.50
2022-09-30T05:46:20.216Z,31.17
2022-09-30T05:51:21.848Z,32.33
2022-09-30T05:56:23.081Z,32.53
2022-09-30T06:01:24.342Z,33.97
2022-09-30T06:06:25.785Z,34.63
2022-09-30T06:11:26.918Z,36.97
2022-09-30T06:16:28.361Z,37.60
2022-09-30T06:21:29.782Z,38.53
2022-09-30T06:26:31.069Z,42.40
2022-09-30T06:31:32.200Z,41.17
2022-09-30T06:36:33.679Z,42.53
2022-09-30T06:41:37.282Z,42.23
2022-09-30T06:46:48.874Z,41.73
2022-09-30T06:51:54.106Z,41.07
2022-09-30T06:56:56.702Z,40.97
2022-09-30T07:01:57.810Z,39.63
2022-09-30T07:06:59.063Z,40.63
2022-09-30T07:12:00.415Z,40.57
2022-09-30T07:17:03.851Z,38.73
2022-09-30T07:22:23.657Z,36.50
2022-09-30T07:27:26.986Z,35.50
2022-09-30T07:32:28.436Z,38.23
2022-09-30T07:37:32.734Z,32.77
2022-09-30T07:42:37.814Z,32.40
2022-09-30T07:47:39.043Z,32.93
2022-09-30T07:52:40.561Z,30.60
2022-09-30T07:57:41.789Z,29.90
2022-09-30T08:02:43.102Z,26.47
2022-09-30T08:07:44.620Z,23.90
2022-09-30T08:12:45.860Z,21.80
2022-09-30T08:17:47.158Z,18.40
2022-09-30T08:22:52.198Z,17.60
2022-09-30T08:27:53.935Z,17.50
2022-09-30T08:32:55.142Z,15.10
2022-09-30T08:37:56.710Z,11.73
2022-09-30T08:43:26.693Z,12.35
2022-09-30T08:48:49.542Z,8.73
2022-09-30T08:53:52.213Z,7.20
2022-09-30T08:58:58.910Z,6.10
2022-09-30T09:04:02.904Z,5.57
2022-09-30T09:09:42.286Z,4.63
2022-09-30T09:15:08.532Z,5.10
2022-09-30T09:20:19.576Z,3.38
2022-09-30T09:25:28.682Z,3.15
2022-09-30T09:30:41.101Z,2.50
2022-09-30T09:35:59.447Z,2.55
2022-09-30T09:41:16.421Z,2.40
2022-09-30T09:46:32.478Z,2.10
2022-09-30T09:51:41.591Z,2.40
2022-09-30T09:56:42.813Z,1.60
2022-09-30T10:01:50.122Z,1.90
2022-09-30T10:07:12.141Z,1.60
2022-09-30T10:12:13.766Z,1.80
2022-09-30T10:17:22.193Z,1.52
2022-09-30T10:22:29.843Z,1.88
2022-09-30T10:27:33.611Z,2.33
2022-09-30T10:32:35.589Z,2.63
2022-09-30T10:37:36.855Z,3.03
2022-09-30T10:42:40.795Z,3.20
2022-09-30T10:47:50.297Z,3.78
2022-09-30T10:52:57.453Z,2.90
2022-09-30T10:58:30.931Z,3.22
2022-09-30T11:03:51.946Z,3.10
2022-09-30T11:09:01.236Z,2.92
2022-09-30T11:14:28.522Z,2.70
2022-09-30T11:20:06.434Z,3.38
2022-09-30T11:25:26.883Z,3.03
2022-09-30T11:30:57.353Z,3.40
2022-09-30T11:36:01.378Z,2.90
2022-09-30T11:41:28.700Z,3.10
2022-09-30T11:46:51.079Z,2.70
2022-09-30T11:51:52.263Z,2.58
2022-09-30T11:57:21.054Z,2.08
2022-09-30T12:02:36.948Z,2.20
2022-09-30T12:07:44.010Z,2.22
2022-09-30T12:12:48.653Z,2.05
2022-09-30T12:18:08.901Z,2.17
2022-09-30T12:23:30.263Z,3.00
2022-09-30T12:29:26.170Z,2.90
2022-09-30T12:35:15.006Z,2.53
2022-09-30T12:40:38.690Z,2.70
2022-09-30T12:46:03.873Z,2.50
2022-09-30T12:51:05.954Z,3.25
2022-09-30T12:56:10.916Z,3.03
2022-09-30T13:01:21.306Z,3.13
2022-09-30T13:06:23.677Z,3.00
2022-09-30T13:12:12.806Z,2.90
2022-09-30T13:17:17.014Z,2.85
2022-09-30T13:22:21.945Z,2.83
2022-09-30T13:27:50.800Z,3.20
2022-09-30T13:32:56.710Z,3.08
2022-09-30T13:38:13.343Z,3.10
2022-09-30T13:43:23.667Z,2.65
2022-09-30T13:48:37.856Z,2.50
2022-09-30T13:53:50.499Z,2.83
2022-09-30T13:59:28.597Z,3.10
2022-09-30T14:05:10.838Z,3.10
2022-09-30T14:11:01.883Z,2.58
2022-09-30T14:16:24.627Z,2.45
2022-09-30T14:21:41.153Z,3.00
2022-09-30T14:27:00.561Z,3.55
2022-09-30T14:32:11.093Z,2.40
2022-09-30T14:37:29.887Z,2.30
2022-09-30T14:42:35.353Z,2.00
2022-09-30T14:47:45.194Z,1.98
2022-09-30T14:52:48.494Z,2.22
2022-09-30T14:57:49.542Z,1.73
2022-09-30T15:02:51.291Z,1.75
2022-09-30T15:07:53.078Z,1.85
2022-09-30T15:12:55.298Z,1.80
2022-09-30T15:17:56.613Z,1.70
2022-09-30T15:23:02.549Z,2.03
2022-09-30T15:28:06.197Z,2.08
2022-09-30T15:33:16.930Z,1.60
2022-09-30T15:38:25.163Z,1.80
2022-09-30T15:43:32.401Z,1.63
2022-09-30T15:48:35.302Z,2.17
2022-09-30T15:53:36.458Z,2.15
2022-09-30T15:58:39.111Z,1.52
2022-09-30T16:03:48.982Z,2.50
2022-09-30T16:08:58.405Z,2.65
2022-09-30T16:14:02.314Z,2.35
2022-09-30T16:19:04.803Z,2.20
2022-09-30T16:24:27.586Z,2.13
2022-09-30T16:29:29.140Z,2.08
2022-09-30T16:34:32.311Z,1.80
2022-09-30T16:39:33.390Z,2.05
2022-09-30T16:44:34.865Z,1.70
2022-09-30T16:49:36.162Z,1.88
2022-09-30T16:54:37.803Z,2.10
2022-09-30T16:59:38.854Z,1.70
2022-09-30T17:04:40.015Z,1.80
2022-09-30T17:09:42.270Z,1.70
2022-09-30T17:14:43.943Z,1.40
2022-09-30T17:19:45.278Z,1.57
2022-09-30T17:24:46.348Z,1.70
2022-09-30T17:29:48.081Z,1.70
2022-09-30T17:34:49.447Z,1.77
2022-09-30T17:39:50.774Z,1.67
2022-09-30T17:44:52.120Z,1.70
2022-09-30T17:49:53.537Z,1.83
2022-09-30T17:54:54.879Z,2.63
2022-09-30T17:59:58.191Z,1.53
2022-09-30T18:04:59.260Z,2.00
2022-09-30T18:10:01.092Z,1.90
2022-09-30T18:15:04.042Z,2.60
2022-09-30T18:20:06.322Z,2.63
2022-09-30T18:25:20.336Z,2.10
2022-09-30T18:30:22.023Z,2.43
2022-09-30T18:35:23.720Z,2.90
2022-09-30T18:40:26.540Z,2.00
2022-09-30T18:45:30.145Z,2.20
2022-09-30T18:50:33.585Z,3.00
2022-09-30T18:55:37.346Z,2.83
2022-09-30T19:00:39.193Z,2.80
2022-09-30T19:05:40.720Z,2.97
2022-09-30T19:10:41.873Z,2.70
2022-09-30T19:15:43.159Z,2.63
2022-09-30T19:20:44.477Z,2.97
2022-09-30T19:25:51.741Z,2.70
2022-09-30T19:30:54.904Z,2.97
2022-09-30T19:36:14.607Z,3.50
2022-09-30T19:41:17.085Z,3.67
2022-09-30T19:46:20.880Z,2.90
2022-09-30T19:51:22.421Z,3.10
2022-09-30T19:56:24.125Z,3.10
2022-09-30T20:01:29.414Z,2.90
2022-09-30T20:06:32.783Z,3.43
2022-09-30T20:11:36.528Z,2.60
2022-09-30T20:16:38.732Z,3.00
2022-09-30T20:21:43.175Z,2.60
2022-09-30T20:26:45.638Z,2.53
2022-09-30T20:31:48.439Z,2.40
2022-09-30T20:36:49.636Z,2.30
2022-09-30T20:41:55.110Z,2.40
2022-09-30T20:46:57.983Z,2.67
2022-09-30T20:52:03.146Z,1.90
2022-09-30T20:57:08.089Z,2.87
2022-09-30T21:02:13.308Z,1.90
2022-09-30T21:07:15.048Z,1.87
2022-09-30T21:12:16.486Z,1.90
2022-09-30T21:17:17.965Z,1.97
2022-09-30T21:22:19.033Z,2.27
2022-09-30T21:27:20.120Z,2.17
2022-09-30T21:32:21.167Z,2.37
2022-09-30T21:37:22.466Z,2.53
2022-09-30T21:42:23.690Z,3.17
2022-09-30T21:47:24.966Z,2.60
2022-09-30T21:52:30.673Z,3.43
2022-09-30T21:57:34.041Z,2.83
2022-09-30T22:02:35.926Z,3.10
2022-09-30T22:07:38.137Z,2.77
2022-09-30T22:12:39.411Z,2.97
2022-09-30T22:17:40.689Z,3.07
2022-09-30T22:22:41.789Z,3.97
2022-09-30T22:27:43.078Z,3.77
2022-09-30T22:32:44.559Z,4.07
2022-09-30T22:38:08.153Z,3.90
2022-09-30T22:43:09.197Z,3.77
2022-09-30T22:48:10.507Z,3.77
2022-09-30T22:53:11.725Z,4.30
2022-09-30T22:58:12.794Z,4.27
2022-09-30T23:03:14.062Z,4.43
2022-09-30T23:08:15.330Z,4.10
2022-09-30T23:13:19.261Z,4.33
2022-09-30T23:18:20.750Z,4.30
2022-09-30T23:23:22.145Z,4.50
2022-09-30T23:28:23.241Z,4.50
2022-09-30T23:33:24.445Z,5.67
2022-09-30T23:38:26.280Z,4.20
2022-09-30T23:43:30.369Z,4.67
2022-09-30T23:48:33.488Z,3.93
2022-09-30T23:53:34.796Z,5.27
2022-09-30T23:58:36.289Z,4.37
